sensor_id;sensor_type;location;lat;lon;timestamp;pressure;altitude;pressure_sealevel;temperature;humidity
15229;BME280;7717;47.792;12.076;2023-04-08T00:00:02;96239.25;;;5.51;100.00
15229;BME280;7717;47.792;12.076;2023-04-08T00:02:28;96247.75;;;5.53;100.00
15229;BME280;7717;47.792;12.076;2023-04-08T00:04:53;96254.41;;;5.45;100.00
15229;BME280;7717;47.792;12.076;2023-04-08T00:07:19;96254.41;;;5.45;100.00
15229;BME280;7717;47.792;12.076;2023-04-08T00:09:45;96255.25;;;5.45;100.00
15229;BME280;7717;47.792;12.076;2023-04-08T00:12:10;96249.47;;;5.54;100.00
15229;BME280;7717;47.792;12.076;2023-04-08T00:14:36;96253.69;;;5.53;100.00
15229;BME280;7717;47.792;12.076;2023-04-08T00:17:02;96256.41;;;5.64;100.00
15229;BME280;7717;47.792;12.076;2023-04-08T00:19:27;96253.81;;;5.61;100.00
15229;BME280;7717;47.792;12.076;2023-04-08T00:21:53;96252.09;;;5.60;100.00
15229;BME280;7717;47.792;12.076;2023-04-08T00:24:18;96250.41;;;5.61;100.00
15229;BME280;7717;47.792;12.076;2023-04-08T00:26:44;96252.00;;;5.54;100.00
15229;BME280;7717;47.792;12.076;2023-04-08T00:29:09;96251.19;;;5.55;100.00
15229;BME280;7717;47.792;12.076;2023-04-08T00:31:34;96255.28;;;5.48;100.00
15229;BME280;7717;47.792;12.076;2023-04-08T00:34:00;96253.63;;;5.49;100.00
15229;BME280;7717;47.792;12.076;2023-04-08T00:36:26;96255.16;;;5.40;100.00
15229;BME280;7717;47.792;12.076;2023-04-08T00:38:51;96257.50;;;5.28;100.00
15229;BME280;7717;47.792;12.076;2023-04-08T00:41:17;96260.03;;;5.27;100.00
15229;BME280;7717;47.792;12.076;2023-04-08T00:43:42;96254.81;;;5.19;100.00
15229;BME280;7717;47.792;12.076;2023-04-08T00:46:08;96265.84;;;5.21;100.00
15229;BME280;7717;47.792;12.076;2023-04-08T00:48:34;96251.53;;;5.25;100.00
15229;BME280;7717;47.792;12.076;2023-04-08T00:50:59;96266.13;;;5.36;100.00
15229;BME280;7717;47.792;12.076;2023-04-08T00:53:25;96262.78;;;5.40;100.00
15229;BME280;7717;47.792;12.076;2023-04-08T00:55:50;96268.03;;;5.51;100.00
15229;BME280;7717;47.792;12.076;2023-04-08T00:58:16;96263.91;;;5.56;100.00
15229;BME280;7717;47.792;12.076;2023-04-08T01:00:50;96259.69;;;5.57;100.00
15229;BME280;7717;47.792;12.076;2023-04-08T01:06:39;96271.00;;;5.77;100.00
15229;BME280;7717;47.792;12.076;2023-04-08T01:09:08;96260.88;;;5.81;100.00
15229;BME280;7717;47.792;12.076;2023-04-08T01:11:34;96263.59;;;5.93;100.00
15229;BME280;7717;47.792;12.076;2023-04-08T01:14:04;96265.53;;;6.05;100.00
15229;BME280;7717;47.792;12.076;2023-04-08T01:16:31;96246.81;;;6.01;100.00
15229;BME280;7717;47.792;12.076;2023-04-08T01:18:58;96251.28;;;6.16;100.00
15229;BME280;7717;47.792;12.076;2023-04-08T01:21:24;96259.16;;;6.36;100.00
15229;BME280;7717;47.792;12.076;2023-04-08T01:26:22;96253.81;;;6.16;100.00
15229;BME280;7717;47.792;12.076;2023-04-08T01:28:51;96258.91;;;6.18;100.00
15229;BME280;7717;47.792;12.076;2023-04-08T01:31:18;96237.88;;;6.31;100.00
15229;BME280;7717;47.792;12.076;2023-04-08T01:33:45;96261.88;;;6.52;100.00
15229;BME280;7717;47.792;12.076;2023-04-08T01:36:12;96251.66;;;6.45;100.00
15229;BME280;7717;47.792;12.076;2023-04-08T01:38:38;96245.56;;;6.34;100.00
15229;BME280;7717;47.792;12.076;2023-04-08T01:41:04;96250.44;;;6.19;100.00
15229;BME280;7717;47.792;12.076;2023-04-08T01:43:32;96258.81;;;6.10;100.00
15229;BME280;7717;47.792;12.076;2023-04-08T01:45:59;96251.06;;;6.01;100.00
15229;BME280;7717;47.792;12.076;2023-04-08T01:48:26;96264.44;;;5.93;100.00
15229;BME280;7717;47.792;12.076;2023-04-08T01:50:53;96260.84;;;5.79;100.00
15229;BME280;7717;47.792;12.076;2023-04-08T01:53:20;96262.00;;;5.98;100.00
15229;BME280;7717;47.792;12.076;2023-04-08T01:55:46;96249.56;;;6.17;100.00
15229;BME280;7717;47.792;12.076;2023-04-08T01:58:17;96251.47;;;6.32;100.00
15229;BME280;7717;47.792;12.076;2023-04-08T02:00:44;96247.22;;;6.30;100.00
15229;BME280;7717;47.792;12.076;2023-04-08T02:03:11;96254.94;;;6.38;100.00
15229;BME280;7717;47.792;12.076;2023-04-08T02:05:38;96248.88;;;6.27;100.00
15229;BME280;7717;47.792;12.076;2023-04-08T02:08:03;96246.41;;;6.33;100.00
15229;BME280;7717;47.792;12.076;2023-04-08T02:10:29;96248.66;;;6.11;100.00
15229;BME280;7717;47.792;12.076;2023-04-08T02:12:55;96250.19;;;5.99;100.00
15229;BME280;7717;47.792;12.076;2023-04-08T02:15:21;96243.88;;;5.76;100.00
15229;BME280;7717;47.792;12.076;2023-04-08T02:17:49;96255.72;;;5.76;100.00
15229;BME280;7717;47.792;12.076;2023-04-08T02:20:30;96261.63;;;5.75;100.00
15229;BME280;7717;47.792;12.076;2023-04-08T02:23:06;96248.91;;;5.73;100.00
15229;BME280;7717;47.792;12.076;2023-04-08T02:25:35;96261.50;;;5.66;100.00
15229;BME280;7717;47.792;12.076;2023-04-08T02:28:03;96264.03;;;5.64;100.00
15229;BME280;7717;47.792;12.076;2023-04-08T02:30:30;96265.38;;;5.44;100.00
15229;BME280;7717;47.792;12.076;2023-04-08T02:32:57;96262.47;;;5.20;100.00
15229;BME280;7717;47.792;12.076;2023-04-08T02:35:23;96263.84;;;5.04;100.00
15229;BME280;7717;47.792;12.076;2023-04-08T02:37:48;96236.91;;;4.65;100.00
15229;BME280;7717;47.792;12.076;2023-04-08T02:40:30;96268.50;;;4.80;100.00
15229;BME280;7717;47.792;12.076;2023-04-08T02:42:56;96268.13;;;4.61;100.00
15229;BME280;7717;47.792;12.076;2023-04-08T02:45:26;96263.00;;;4.58;100.00
15229;BME280;7717;47.792;12.076;2023-04-08T02:47:52;96270.41;;;4.49;100.00
15229;BME280;7717;47.792;12.076;2023-04-08T02:50:17;96265.97;;;4.39;100.00
15229;BME280;7717;47.792;12.076;2023-04-08T02:52:42;96269.34;;;4.38;100.00
15229;BME280;7717;47.792;12.076;2023-04-08T02:55:09;96267.97;;;4.54;100.00
15229;BME280;7717;47.792;12.076;2023-04-08T02:57:36;96264.56;;;4.53;100.00
15229;BME280;7717;47.792;12.076;2023-04-08T03:00:03;96263.34;;;4.34;100.00
15229;BME280;7717;47.792;12.076;2023-04-08T03:02:29;96266.00;;;4.40;100.00
15229;BME280;7717;47.792;12.076;2023-04-08T03:04:54;96277.53;;;4.68;100.00
15229;BME280;7717;47.792;12.076;2023-04-08T03:07:19;96271.06;;;4.81;100.00
15229;BME280;7717;47.792;12.076;2023-04-08T03:09:45;96276.91;;;4.79;100.00
15229;BME280;7717;47.792;12.076;2023-04-08T03:12:10;96277.13;;;4.90;100.00
15229;BME280;7717;47.792;12.076;2023-04-08T03:14:36;96269.59;;;4.94;100.00
15229;BME280;7717;47.792;12.076;2023-04-08T03:17:01;96264.66;;;5.02;100.00
15229;BME280;7717;47.792;12.076;2023-04-08T03:19:26;96271.47;;;5.04;100.00
15229;BME280;7717;47.792;12.076;2023-04-08T03:21:52;96280.03;;;5.10;100.00
15229;BME280;7717;47.792;12.076;2023-04-08T03:24:17;96272.78;;;4.84;100.00
15229;BME280;7717;47.792;12.076;2023-04-08T03:26:42;96256.25;;;4.60;100.00
15229;BME280;7717;47.792;12.076;2023-04-08T03:29:08;96275.28;;;4.40;100.00
15229;BME280;7717;47.792;12.076;2023-04-08T03:31:34;96274.06;;;4.22;100.00
15229;BME280;7717;47.792;12.076;2023-04-08T03:34:02;96283.31;;;4.20;100.00
15229;BME280;7717;47.792;12.076;2023-04-08T03:36:27;96274.59;;;4.07;100.00
15229;BME280;7717;47.792;12.076;2023-04-08T03:38:53;96277.97;;;4.08;100.00
15229;BME280;7717;47.792;12.076;2023-04-08T03:41:18;96270.88;;;3.91;100.00
15229;BME280;7717;47.792;12.076;2023-04-08T03:43:43;96282.13;;;4.04;100.00
15229;BME280;7717;47.792;12.076;2023-04-08T03:46:09;96283.59;;;3.94;100.00
15229;BME280;7717;47.792;12.076;2023-04-08T03:48:34;96281.00;;;3.91;100.00
15229;BME280;7717;47.792;12.076;2023-04-08T03:50:59;96277.50;;;3.86;100.00
15229;BME280;7717;47.792;12.076;2023-04-08T03:53:25;96275.91;;;3.90;100.00
15229;BME280;7717;47.792;12.076;2023-04-08T03:55:52;96275.72;;;3.82;100.00
15229;BME280;7717;47.792;12.076;2023-04-08T03:58:17;96279.00;;;3.78;100.00
15229;BME280;7717;47.792;12.076;2023-04-08T04:00:43;96280.88;;;3.87;100.00
15229;BME280;7717;47.792;12.076;2023-04-08T04:03:08;96283.69;;;3.99;100.00
15229;BME280;7717;47.792;12.076;2023-04-08T04:05:37;96288.94;;;4.07;100.00
15229;BME280;7717;47.792;12.076;2023-04-08T04:08:04;96284.22;;;4.22;100.00
15229;BME280;7717;47.792;12.076;2023-04-08T04:10:29;96289.22;;;4.19;100.00
15229;BME280;7717;47.792;12.076;2023-04-08T04:12:55;96278.69;;;4.02;100.00
15229;BME280;7717;47.792;12.076;2023-04-08T04:15:20;96282.13;;;4.04;100.00
15229;BME280;7717;47.792;12.076;2023-04-08T04:17:49;96295.13;;;4.20;100.00
15229;BME280;7717;47.792;12.076;2023-04-08T04:20:15;96289.00;;;4.10;100.00
15229;BME280;7717;47.792;12.076;2023-04-08T04:22:40;96295.06;;;4.17;100.00
15229;BME280;7717;47.792;12.076;2023-04-08T04:25:07;96297.63;;;4.18;100.00
15229;BME280;7717;47.792;12.076;2023-04-08T04:27:32;96293.22;;;4.11;100.00
15229;BME280;7717;47.792;12.076;2023-04-08T04:29:59;96300.97;;;4.17;100.00
15229;BME280;7717;47.792;12.076;2023-04-08T04:32:25;96305.50;;;4.30;100.00
15229;BME280;7717;47.792;12.076;2023-04-08T04:34:50;96305.19;;;4.17;100.00
15229;BME280;7717;47.792;12.076;2023-04-08T04:37:15;96302.94;;;4.29;100.00
15229;BME280;7717;47.792;12.076;2023-04-08T04:39:41;96301.31;;;4.32;100.00
15229;BME280;7717;47.792;12.076;2023-04-08T04:42:07;96301.28;;;4.31;100.00
15229;BME280;7717;47.792;12.076;2023-04-08T04:44:32;96297.69;;;4.21;100.00
15229;BME280;7717;47.792;12.076;2023-04-08T04:46:57;96308.34;;;4.46;100.00
15229;BME280;7717;47.792;12.076;2023-04-08T04:49:23;96307.50;;;4.47;100.00
15229;BME280;7717;47.792;12.076;2023-04-08T04:51:48;96300.59;;;4.38;100.00
15229;BME280;7717;47.792;12.076;2023-04-08T04:54:13;96300.84;;;4.50;100.00
15229;BME280;7717;47.792;12.076;2023-04-08T04:56:39;96298.44;;;4.57;100.00
15229;BME280;7717;47.792;12.076;2023-04-08T04:59:04;96303.50;;;4.55;100.00
15229;BME280;7717;47.792;12.076;2023-04-08T05:01:30;96310.34;;;4.61;100.00
15229;BME280;7717;47.792;12.076;2023-04-08T05:03:55;96312.16;;;4.66;100.00
15229;BME280;7717;47.792;12.076;2023-04-08T05:06:22;96312.25;;;4.71;100.00
15229;BME280;7717;47.792;12.076;2023-04-08T05:08:47;96308.81;;;4.67;100.00
15229;BME280;7717;47.792;12.076;2023-04-08T05:11:13;96310.72;;;4.79;100.00
15229;BME280;7717;47.792;12.076;2023-04-08T05:13:38;96302.19;;;4.76;100.00
15229;BME280;7717;47.792;12.076;2023-04-08T05:16:04;96307.31;;;4.77;100.00
15229;BME280;7717;47.792;12.076;2023-04-08T05:18:29;96304.03;;;4.83;100.00
15229;BME280;7717;47.792;12.076;2023-04-08T05:20:54;96306.81;;;4.97;100.00
15229;BME280;7717;47.792;12.076;2023-04-08T05:23:20;96309.56;;;5.08;100.00
15229;BME280;7717;47.792;12.076;2023-04-08T05:25:45;96314.56;;;5.03;100.00
15229;BME280;7717;47.792;12.076;2023-04-08T05:28:11;96308.53;;;4.98;100.00
15229;BME280;7717;47.792;12.076;2023-04-08T05:30:36;96306.31;;;5.15;100.00
15229;BME280;7717;47.792;12.076;2023-04-08T05:33:02;96316.63;;;5.22;100.00
15229;BME280;7717;47.792;12.076;2023-04-08T05:35:27;96308.41;;;5.37;100.00
15229;BME280;7717;47.792;12.076;2023-04-08T05:37:53;96298.16;;;5.31;100.00
15229;BME280;7717;47.792;12.076;2023-04-08T05:40:18;96321.28;;;5.48;100.00
15229;BME280;7717;47.792;12.076;2023-04-08T05:42:44;96318.34;;;5.74;100.00
15229;BME280;7717;47.792;12.076;2023-04-08T05:45:09;96318.81;;;6.00;100.00
15229;BME280;7717;47.792;12.076;2023-04-08T05:47:35;96318.09;;;6.10;100.00
15229;BME280;7717;47.792;12.076;2023-04-08T05:50:00;96324.16;;;6.20;100.00
15229;BME280;7717;47.792;12.076;2023-04-08T05:52:26;96308.34;;;6.40;100.00
15229;BME280;7717;47.792;12.076;2023-04-08T05:54:51;96311.69;;;6.37;100.00
15229;BME280;7717;47.792;12.076;2023-04-08T05:57:16;96315.41;;;6.62;100.00
15229;BME280;7717;47.792;12.076;2023-04-08T05:59:41;96318.94;;;6.72;100.00
15229;BME280;7717;47.792;12.076;2023-04-08T06:02:07;96317.28;;;6.76;100.00
15229;BME280;7717;47.792;12.076;2023-04-08T06:04:32;96316.63;;;6.94;100.00
15229;BME280;7717;47.792;12.076;2023-04-08T06:06:57;96314.31;;;7.12;100.00
15229;BME280;7717;47.792;12.076;2023-04-08T06:09:24;96315.28;;;7.22;100.00
15229;BME280;7717;47.792;12.076;2023-04-08T06:11:50;96321.25;;;7.26;100.00
15229;BME280;7717;47.792;12.076;2023-04-08T06:14:16;96329.00;;;7.36;100.00
15229;BME280;7717;47.792;12.076;2023-04-08T06:16:41;96327.41;;;7.46;100.00
15229;BME280;7717;47.792;12.076;2023-04-08T06:19:06;96327.38;;;7.45;100.00
15229;BME280;7717;47.792;12.076;2023-04-08T06:21:32;96334.16;;;7.43;100.00
15229;BME280;7717;47.792;12.076;2023-04-08T06:23:57;96331.69;;;7.50;100.00
15229;BME280;7717;47.792;12.076;2023-04-08T06:26:23;96325.03;;;7.66;100.00
15229;BME280;7717;47.792;12.076;2023-04-08T06:28:48;96323.50;;;7.85;100.00
15229;BME280;7717;47.792;12.076;2023-04-08T06:31:13;96316.72;;;7.87;100.00
15229;BME280;7717;47.792;12.076;2023-04-08T06:33:39;96313.50;;;8.08;100.00
15229;BME280;7717;47.792;12.076;2023-04-08T06:36:05;96313.53;;;8.15;100.00
15229;BME280;7717;47.792;12.076;2023-04-08T06:38:31;96316.19;;;8.32;100.00
15229;BME280;7717;47.792;12.076;2023-04-08T06:41:06;96321.31;;;8.32;100.00
15229;BME280;7717;47.792;12.076;2023-04-08T06:43:33;96319.59;;;8.32;100.00
15229;BME280;7717;47.792;12.076;2023-04-08T06:45:58;96328.03;;;8.26;100.00
15229;BME280;7717;47.792;12.076;2023-04-08T06:48:24;96320.41;;;8.26;100.00
15229;BME280;7717;47.792;12.076;2023-04-08T06:50:58;96322.00;;;8.12;100.00
15229;BME280;7717;47.792;12.076;2023-04-08T06:53:26;96327.94;;;8.06;100.00
15229;BME280;7717;47.792;12.076;2023-04-08T06:55:53;96331.41;;;8.19;100.00
15229;BME280;7717;47.792;12.076;2023-04-08T06:58:18;96339.81;;;8.09;100.00
15229;BME280;7717;47.792;12.076;2023-04-08T07:00:44;96339.59;;;7.83;100.00
15229;BME280;7717;47.792;12.076;2023-04-08T07:03:10;96341.88;;;7.49;100.00
15229;BME280;7717;47.792;12.076;2023-04-08T07:05:36;96343.44;;;7.39;100.00
15229;BME280;7717;47.792;12.076;2023-04-08T07:08:03;96346.72;;;7.27;100.00
15229;BME280;7717;47.792;12.076;2023-04-08T07:10:28;96347.31;;;7.05;100.00
15229;BME280;7717;47.792;12.076;2023-04-08T07:12:53;96354.03;;;6.98;100.00
15229;BME280;7717;47.792;12.076;2023-04-08T07:15:19;96352.50;;;7.14;100.00
15229;BME280;7717;47.792;12.076;2023-04-08T07:17:44;96349.97;;;7.15;100.00
15229;BME280;7717;47.792;12.076;2023-04-08T07:20:12;96354.34;;;7.26;100.00
15229;BME280;7717;47.792;12.076;2023-04-08T07:22:38;96359.25;;;7.09;100.00
15229;BME280;7717;47.792;12.076;2023-04-08T07:25:04;96368.44;;;6.97;100.00
15229;BME280;7717;47.792;12.076;2023-04-08T07:27:29;96361.53;;;6.89;100.00
15229;BME280;7717;47.792;12.076;2023-04-08T07:29:55;96366.75;;;6.98;100.00
15229;BME280;7717;47.792;12.076;2023-04-08T07:32:22;96370.56;;;6.65;100.00
15229;BME280;7717;47.792;12.076;2023-04-08T07:34:47;96375.72;;;6.70;100.00
15229;BME280;7717;47.792;12.076;2023-04-08T07:37:13;96370.69;;;6.74;100.00
15229;BME280;7717;47.792;12.076;2023-04-08T07:39:38;96377.38;;;6.66;100.00
15229;BME280;7717;47.792;12.076;2023-04-08T07:42:04;96376.72;;;6.81;100.00
15229;BME280;7717;47.792;12.076;2023-04-08T07:44:29;96373.38;;;6.85;100.00
15229;BME280;7717;47.792;12.076;2023-04-08T07:46:54;96383.56;;;6.87;100.00
15229;BME280;7717;47.792;12.076;2023-04-08T07:49:20;96375.09;;;6.89;100.00
15229;BME280;7717;47.792;12.076;2023-04-08T07:51:45;96382.78;;;6.92;100.00
15229;BME280;7717;47.792;12.076;2023-04-08T07:54:11;96382.00;;;6.98;100.00
15229;BME280;7717;47.792;12.076;2023-04-08T07:56:41;96377.63;;;6.84;100.00
15229;BME280;7717;47.792;12.076;2023-04-08T07:59:08;96387.75;;;6.81;100.00
15229;BME280;7717;47.792;12.076;2023-04-08T08:01:34;96389.88;;;6.51;100.00
15229;BME280;7717;47.792;12.076;2023-04-08T08:04:00;96380.56;;;6.53;100.00
15229;BME280;7717;47.792;12.076;2023-04-08T08:06:26;96393.31;;;6.56;100.00
15229;BME280;7717;47.792;12.076;2023-04-08T08:08:56;96391.38;;;6.38;100.00
15229;BME280;7717;47.792;12.076;2023-04-08T08:11:21;96394.84;;;6.44;100.00
15229;BME280;7717;47.792;12.076;2023-04-08T08:13:47;96396.59;;;6.47;100.00
15229;BME280;7717;47.792;12.076;2023-04-08T08:16:12;96387.00;;;6.29;100.00
15229;BME280;7717;47.792;12.076;2023-04-08T08:18:38;96396.66;;;6.53;100.00
15229;BME280;7717;47.792;12.076;2023-04-08T08:21:04;96400.06;;;6.52;100.00
15229;BME280;7717;47.792;12.076;2023-04-08T08:23:30;96405.94;;;6.49;100.00
15229;BME280;7717;47.792;12.076;2023-04-08T08:26:02;96407.75;;;6.55;100.00
15229;BME280;7717;47.792;12.076;2023-04-08T08:28:28;96401.28;;;6.79;100.00
15229;BME280;7717;47.792;12.076;2023-04-08T08:30:54;96405.56;;;6.81;100.00
15229;BME280;7717;47.792;12.076;2023-04-08T08:33:19;96416.44;;;6.71;100.00
15229;BME280;7717;47.792;12.076;2023-04-08T08:35:45;96421.81;;;6.33;100.00
15229;BME280;7717;47.792;12.076;2023-04-08T08:38:10;96422.09;;;6.53;100.00
15229;BME280;7717;47.792;12.076;2023-04-08T08:40:38;96424.13;;;6.76;100.00
15229;BME280;7717;47.792;12.076;2023-04-08T08:43:03;96426.41;;;6.57;100.00
15229;BME280;7717;47.792;12.076;2023-04-08T08:45:29;96426.63;;;6.73;100.00
15229;BME280;7717;47.792;12.076;2023-04-08T08:47:55;96418.75;;;6.56;100.00
15229;BME280;7717;47.792;12.076;2023-04-08T08:50:20;96429.81;;;6.59;100.00
15229;BME280;7717;47.792;12.076;2023-04-08T08:52:50;96423.25;;;6.19;100.00
15229;BME280;7717;47.792;12.076;2023-04-08T08:55:20;96438.84;;;6.39;100.00
15229;BME280;7717;47.792;12.076;2023-04-08T08:57:48;96436.41;;;6.46;100.00
15229;BME280;7717;47.792;12.076;2023-04-08T09:00:15;96448.84;;;6.29;100.00
15229;BME280;7717;47.792;12.076;2023-04-08T09:02:40;96452.06;;;6.18;100.00
15229;BME280;7717;47.792;12.076;2023-04-08T09:05:06;96452.84;;;6.15;100.00
15229;BME280;7717;47.792;12.076;2023-04-08T09:07:35;96443.50;;;6.14;100.00
15229;BME280;7717;47.792;12.076;2023-04-08T09:10:01;96459.75;;;6.22;100.00
15229;BME280;7717;47.792;12.076;2023-04-08T09:12:27;96472.75;;;6.39;100.00
15229;BME280;7717;47.792;12.076;2023-04-08T09:15:08;96457.00;;;6.08;100.00
15229;BME280;7717;47.792;12.076;2023-04-08T09:17:37;96472.44;;;6.21;100.00
15229;BME280;7717;47.792;12.076;2023-04-08T09:20:06;96479.59;;;6.43;100.00
15229;BME280;7717;47.792;12.076;2023-04-08T09:23:08;96477.22;;;6.02;100.00
15229;BME280;7717;47.792;12.076;2023-04-08T09:25:33;96473.66;;;5.94;100.00
15229;BME280;7717;47.792;12.076;2023-04-08T09:27:59;96479.59;;;5.96;100.00
15229;BME280;7717;47.792;12.076;2023-04-08T09:30:26;96482.34;;;6.05;100.00
15229;BME280;7717;47.792;12.076;2023-04-08T09:32:54;96492.22;;;5.91;100.00
15229;BME280;7717;47.792;12.076;2023-04-08T09:35:19;96498.16;;;5.92;100.00
15229;BME280;7717;47.792;12.076;2023-04-08T09:37:45;96492.44;;;6.02;100.00
15229;BME280;7717;47.792;12.076;2023-04-08T09:40:12;96492.94;;;5.86;100.00
15229;BME280;7717;47.792;12.076;2023-04-08T09:42:43;96491.09;;;5.75;100.00
15229;BME280;7717;47.792;12.076;2023-04-08T09:45:09;96500.13;;;5.61;100.00
15229;BME280;7717;47.792;12.076;2023-04-08T09:47:43;96501.94;;;5.68;100.00
15229;BME280;7717;47.792;12.076;2023-04-08T09:50:15;96491.81;;;5.70;100.00
15229;BME280;7717;47.792;12.076;2023-04-08T09:52:45;96496.47;;;5.92;100.00
15229;BME280;7717;47.792;12.076;2023-04-08T09:55:16;96501.28;;;5.77;100.00
15229;BME280;7717;47.792;12.076;2023-04-08T09:58:07;96503.47;;;5.60;100.00
15229;BME280;7717;47.792;12.076;2023-04-08T10:00:41;96507.94;;;5.73;100.00
15229;BME280;7717;47.792;12.076;2023-04-08T10:03:29;96508.66;;;5.65;100.00
15229;BME280;7717;47.792;12.076;2023-04-08T10:06:00;96500.47;;;5.81;100.00
15229;BME280;7717;47.792;12.076;2023-04-08T10:08:26;96494.59;;;5.82;100.00
15229;BME280;7717;47.792;12.076;2023-04-08T10:10:53;96506.50;;;5.85;100.00
15229;BME280;7717;47.792;12.076;2023-04-08T10:13:20;96490.28;;;5.80;100.00
15229;BME280;7717;47.792;12.076;2023-04-08T10:15:46;96491.44;;;5.94;100.00
15229;BME280;7717;47.792;12.076;2023-04-08T10:23:14;96496.41;;;5.45;100.00
15229;BME280;7717;47.792;12.076;2023-04-08T10:25:44;96498.44;;;5.62;100.00
15229;BME280;7717;47.792;12.076;2023-04-08T10:30:38;96500.88;;;6.50;100.00
15229;BME280;7717;47.792;12.076;2023-04-08T10:33:31;96497.75;;;6.65;100.00
15229;BME280;7717;47.792;12.076;2023-04-08T10:36:11;96497.81;;;6.70;100.00
15229;BME280;7717;47.792;12.076;2023-04-08T10:38:40;96493.81;;;6.85;100.00
15229;BME280;7717;47.792;12.076;2023-04-08T10:41:07;96492.44;;;7.09;100.00
15229;BME280;7717;47.792;12.076;2023-04-08T10:43:34;96484.28;;;6.71;100.00
15229;BME280;7717;47.792;12.076;2023-04-08T10:46:01;96489.47;;;6.78;100.00
15229;BME280;7717;47.792;12.076;2023-04-08T10:48:26;96491.50;;;7.01;100.00
15229;BME280;7717;47.792;12.076;2023-04-08T10:51:02;96490.84;;;7.14;100.00
15229;BME280;7717;47.792;12.076;2023-04-08T10:53:33;96496.16;;;7.33;100.00
15229;BME280;7717;47.792;12.076;2023-04-08T10:56:10;96489.31;;;7.29;100.00
15229;BME280;7717;47.792;12.076;2023-04-08T10:58:56;96494.81;;;6.97;100.00
15229;BME280;7717;47.792;12.076;2023-04-08T11:01:21;96481.59;;;7.21;100.00
15229;BME280;7717;47.792;12.076;2023-04-08T11:03:48;96493.44;;;7.17;100.00
15229;BME280;7717;47.792;12.076;2023-04-08T11:06:14;96486.50;;;7.09;100.00
15229;BME280;7717;47.792;12.076;2023-04-08T11:08:39;96495.47;;;6.82;100.00
15229;BME280;7717;47.792;12.076;2023-04-08T11:11:06;96491.16;;;6.78;100.00
15229;BME280;7717;47.792;12.076;2023-04-08T11:13:34;96491.19;;;7.42;100.00
15229;BME280;7717;47.792;12.076;2023-04-08T11:16:00;96484.69;;;7.66;100.00
15229;BME280;7717;47.792;12.076;2023-04-08T11:18:27;96488.13;;;7.71;100.00
15229;BME280;7717;47.792;12.076;2023-04-08T11:20:53;96493.66;;;7.37;100.00
15229;BME280;7717;47.792;12.076;2023-04-08T11:23:19;96491.59;;;7.09;100.00
15229;BME280;7717;47.792;12.076;2023-04-08T11:25:46;96495.78;;;6.50;100.00
15229;BME280;7717;47.792;12.076;2023-04-08T11:28:15;96495.25;;;6.68;100.00
15229;BME280;7717;47.792;12.076;2023-04-08T11:30:41;96486.53;;;7.10;100.00
15229;BME280;7717;47.792;12.076;2023-04-08T11:33:07;96474.53;;;7.03;100.00
15229;BME280;7717;47.792;12.076;2023-04-08T11:35:33;96484.16;;;7.24;100.00
15229;BME280;7717;47.792;12.076;2023-04-08T11:37:59;96474.88;;;7.28;100.00
15229;BME280;7717;47.792;12.076;2023-04-08T11:40:24;96476.53;;;7.24;100.00
15229;BME280;7717;47.792;12.076;2023-04-08T11:42:51;96465.75;;;7.47;100.00
15229;BME280;7717;47.792;12.076;2023-04-08T11:45:18;96477.88;;;7.65;100.00
15229;BME280;7717;47.792;12.076;2023-04-08T11:47:45;96466.81;;;7.63;100.00
15229;BME280;7717;47.792;12.076;2023-04-08T11:50:11;96459.38;;;7.84;100.00
15229;BME280;7717;47.792;12.076;2023-04-08T11:52:45;96471.00;;;7.57;100.00
15229;BME280;7717;47.792;12.076;2023-04-08T11:55:12;96461.66;;;7.56;100.00
15229;BME280;7717;47.792;12.076;2023-04-08T11:57:45;96466.75;;;7.55;100.00
15229;BME280;7717;47.792;12.076;2023-04-08T12:00:11;96474.28;;;7.47;100.00
15229;BME280;7717;47.792;12.076;2023-04-08T12:02:36;96465.81;;;7.51;100.00
15229;BME280;7717;47.792;12.076;2023-04-08T12:05:02;96459.06;;;7.53;100.00
15229;BME280;7717;47.792;12.076;2023-04-08T12:07:27;96451.59;;;7.69;100.00
15229;BME280;7717;47.792;12.076;2023-04-08T12:09:53;96465.25;;;7.75;100.00
15229;BME280;7717;47.792;12.076;2023-04-08T12:12:19;96467.44;;;7.45;100.00
15229;BME280;7717;47.792;12.076;2023-04-08T12:14:44;96473.72;;;7.04;100.00
15229;BME280;7717;47.792;12.076;2023-04-08T12:17:09;96477.28;;;7.17;100.00
15229;BME280;7717;47.792;12.076;2023-04-08T12:19:35;96475.44;;;7.05;100.00
15229;BME280;7717;47.792;12.076;2023-04-08T12:22:00;96476.72;;;6.75;100.00
15229;BME280;7717;47.792;12.076;2023-04-08T12:24:26;96478.84;;;7.07;100.00
15229;BME280;7717;47.792;12.076;2023-04-08T12:26:51;96472.38;;;6.70;100.00
15229;BME280;7717;47.792;12.076;2023-04-08T12:29:17;96469.16;;;6.80;100.00
15229;BME280;7717;47.792;12.076;2023-04-08T12:31:42;96474.31;;;6.86;100.00
15229;BME280;7717;47.792;12.076;2023-04-08T12:34:07;96477.69;;;6.85;100.00
15229;BME280;7717;47.792;12.076;2023-04-08T12:36:33;96475.59;;;6.59;100.00
15229;BME280;7717;47.792;12.076;2023-04-08T12:38:58;96486.00;;;6.75;100.00
15229;BME280;7717;47.792;12.076;2023-04-08T12:41:23;96477.38;;;6.65;100.00
15229;BME280;7717;47.792;12.076;2023-04-08T12:43:49;96478.06;;;6.55;100.00
15229;BME280;7717;47.792;12.076;2023-04-08T12:46:14;96479.88;;;6.62;100.00
15229;BME280;7717;47.792;12.076;2023-04-08T12:48:40;96483.94;;;6.51;100.00
15229;BME280;7717;47.792;12.076;2023-04-08T12:51:06;96475.25;;;6.36;100.00
15229;BME280;7717;47.792;12.076;2023-04-08T12:53:33;96473.75;;;6.49;100.00
15229;BME280;7717;47.792;12.076;2023-04-08T12:55:59;96486.84;;;6.22;100.00
15229;BME280;7717;47.792;12.076;2023-04-08T12:58:24;96487.97;;;6.36;100.00
15229;BME280;7717;47.792;12.076;2023-04-08T13:00:50;96488.13;;;6.48;100.00
15229;BME280;7717;47.792;12.076;2023-04-08T13:03:15;96490.25;;;6.22;100.00
15229;BME280;7717;47.792;12.076;2023-04-08T13:05:42;96485.25;;;6.27;100.00
15229;BME280;7717;47.792;12.076;2023-04-08T13:08:07;96489.34;;;6.19;100.00
15229;BME280;7717;47.792;12.076;2023-04-08T13:10:33;96494.03;;;6.44;100.00